sensor_id;sensor_type;location;lat;lon;timestamp;temperature;humidity
55091;DHT22;40985;53.180;5.800;2022-08-04T00:00:24;17.70;99.90
55091;DHT22;40985;53.180;5.800;2022-08-04T00:10:39;17.70;99.90
55091;DHT22;40985;53.180;5.800;2022-08-04T00:13:06;17.60;99.90
55091;DHT22;40985;53.180;5.800;2022-08-04T00:15:32;17.60;99.90
55091;DHT22;40985;53.180;5.800;2022-08-04T00:18:00;17.70;99.90
55091;DHT22;40985;53.180;5.800;2022-08-04T00:20:32;17.60;99.90
55091;DHT22;40985;53.180;5.800;2022-08-04T00:23:00;17.60;99.90
55091;DHT22;40985;53.180;5.800;2022-08-04T00:25:26;17.60;99.90
55091;DHT22;40985;53.180;5.800;2022-08-04T00:27:53;17.50;99.90
55091;DHT22;40985;53.180;5.800;2022-08-04T00:30:20;17.50;99.90
55091;DHT22;40985;53.180;5.800;2022-08-04T00:32:46;17.50;99.90
55091;DHT22;40985;53.180;5.800;2022-08-04T00:35:13;17.50;99.90
55091;DHT22;40985;53.180;5.800;2022-08-04T00:37:39;17.50;99.90
55091;DHT22;40985;53.180;5.800;2022-08-04T00:40:30;17.50;99.90
55091;DHT22;40985;53.180;5.800;2022-08-04T00:43:23;17.50;99.90
55091;DHT22;40985;53.180;5.800;2022-08-04T00:46:20;17.50;99.90
55091;DHT22;40985;53.180;5.800;2022-08-04T00:57:29;17.40;99.90
55091;DHT22;40985;53.180;5.800;2022-08-04T01:00:09;17.40;99.90
55091;DHT22;40985;53.180;5.800;2022-08-04T01:05:56;17.40;99.90
55091;DHT22;40985;53.180;5.800;2022-08-04T01:14:21;17.40;99.90
55091;DHT22;40985;53.180;5.800;2022-08-04T01:16:52;17.40;99.90
55091;DHT22;40985;53.180;5.800;2022-08-04T01:30:48;17.40;99.90
55091;DHT22;40985;53.180;5.800;2022-08-04T01:33:17;17.40;99.90
55091;DHT22;40985;53.180;5.800;2022-08-04T01:35:52;17.40;99.90
55091;DHT22;40985;53.180;5.800;2022-08-04T01:38:34;17.40;99.90
55091;DHT22;40985;53.180;5.800;2022-08-04T01:41:03;17.40;99.90
55091;DHT22;40985;53.180;5.800;2022-08-04T01:43:32;17.40;99.90
55091;DHT22;40985;53.180;5.800;2022-08-04T01:46:02;17.40;99.90
55091;DHT22;40985;53.180;5.800;2022-08-04T01:48:29;17.40;99.90
55091;DHT22;40985;53.180;5.800;2022-08-04T01:51:03;17.40;99.90
55091;DHT22;40985;53.180;5.800;2022-08-04T01:53:32;17.30;99.90
55091;DHT22;40985;53.180;5.800;2022-08-04T01:56:00;17.40;99.90
55091;DHT22;40985;53.180;5.800;2022-08-04T01:58:28;17.30;99.90
55091;DHT22;40985;53.180;5.800;2022-08-04T02:01:12;17.40;99.90
55091;DHT22;40985;53.180;5.800;2022-08-04T02:03:44;17.30;99.90
55091;DHT22;40985;53.180;5.800;2022-08-04T02:11:16;17.30;99.90
55091;DHT22;40985;53.180;5.800;2022-08-04T02:16:45;17.50;99.90
55091;DHT22;40985;53.180;5.800;2022-08-04T02:19:34;17.50;99.90
55091;DHT22;40985;53.180;5.800;2022-08-04T02:22:16;17.50;99.90
55091;DHT22;40985;53.180;5.800;2022-08-04T02:25:05;17.50;99.90
55091;DHT22;40985;53.180;5.800;2022-08-04T02:27:43;17.50;99.90
55091;DHT22;40985;53.180;5.800;2022-08-04T02:30:12;17.60;99.90
55091;DHT22;40985;53.180;5.800;2022-08-04T02:32:39;17.60;99.90
55091;DHT22;40985;53.180;5.800;2022-08-04T02:35:10;17.60;99.90
55091;DHT22;40985;53.180;5.800;2022-08-04T02:37:37;17.60;99.90
55091;DHT22;40985;53.180;5.800;2022-08-04T02:40:07;17.60;99.90
55091;DHT22;40985;53.180;5.800;2022-08-04T02:42:33;17.60;99.90
55091;DHT22;40985;53.180;5.800;2022-08-04T02:44:59;17.60;99.90
55091;DHT22;40985;53.180;5.800;2022-08-04T02:47:27;17.70;99.90
55091;DHT22;40985;53.180;5.800;2022-08-04T02:49:52;17.70;99.90
55091;DHT22;40985;53.180;5.800;2022-08-04T02:52:19;17.70;99.90
55091;DHT22;40985;53.180;5.800;2022-08-04T02:54:48;17.80;99.90
55091;DHT22;40985;53.180;5.800;2022-08-04T02:57:16;17.80;99.90
55091;DHT22;40985;53.180;5.800;2022-08-04T03:03:23;17.80;99.90
55091;DHT22;40985;53.180;5.800;2022-08-04T03:08:23;18.00;99.90
55091;DHT22;40985;53.180;5.800;2022-08-04T03:11:08;18.00;99.90
55091;DHT22;40985;53.180;5.800;2022-08-04T03:19:27;18.00;99.90
55091;DHT22;40985;53.180;5.800;2022-08-04T03:28:17;17.90;99.90
55091;DHT22;40985;53.180;5.800;2022-08-04T03:53:52;17.80;99.90
55091;DHT22;40985;53.180;5.800;2022-08-04T04:06:52;17.70;99.90
55091;DHT22;40985;53.180;5.800;2022-08-04T04:09:54;17.80;99.90
55091;DHT22;40985;53.180;5.800;2022-08-04T04:12:51;17.80;99.90
55091;DHT22;40985;53.180;5.800;2022-08-04T04:23:56;17.80;99.90
55091;DHT22;40985;53.180;5.800;2022-08-04T04:26:56;17.70;99.90
55091;DHT22;40985;53.180;5.800;2022-08-04T04:35:44;17.80;99.90
55091;DHT22;40985;53.180;5.800;2022-08-04T04:43:55;17.80;99.90
55091;DHT22;40985;53.180;5.800;2022-08-04T04:46:49;17.80;99.90
55091;DHT22;40985;53.180;5.800;2022-08-04T04:51:57;17.80;99.90
55091;DHT22;40985;53.180;5.800;2022-08-04T04:54:40;17.80;99.90
55091;DHT22;40985;53.180;5.800;2022-08-04T04:57:19;17.90;99.90
55091;DHT22;40985;53.180;5.800;2022-08-04T04:59:58;17.80;99.90
55091;DHT22;40985;53.180;5.800;2022-08-04T05:11:24;18.00;99.90
55091;DHT22;40985;53.180;5.800;2022-08-04T05:13:58;18.10;99.90
55091;DHT22;40985;53.180;5.800;2022-08-04T05:16:40;18.10;99.90
55091;DHT22;40985;53.180;5.800;2022-08-04T05:19:32;18.20;99.90
55091;DHT22;40985;53.180;5.800;2022-08-04T05:24:26;18.30;99.90
55091;DHT22;40985;53.180;5.800;2022-08-04T05:26:55;18.30;99.90
55091;DHT22;40985;53.180;5.800;2022-08-04T05:29:35;18.40;99.90
55091;DHT22;40985;53.180;5.800;2022-08-04T05:32:04;18.40;99.90
55091;DHT22;40985;53.180;5.800;2022-08-04T05:34:40;18.40;99.90
55091;DHT22;40985;53.180;5.800;2022-08-04T05:37:10;18.50;99.90
55091;DHT22;40985;53.180;5.800;2022-08-04T05:39:45;18.50;99.90
55091;DHT22;40985;53.180;5.800;2022-08-04T05:42:13;18.50;99.90
55091;DHT22;40985;53.180;5.800;2022-08-04T05:44:41;18.60;99.90
55091;DHT22;40985;53.180;5.800;2022-08-04T05:47:07;18.70;99.90
55091;DHT22;40985;53.180;5.800;2022-08-04T05:49:36;18.70;99.90
55091;DHT22;40985;53.180;5.800;2022-08-04T05:52:04;18.80;99.90
55091;DHT22;40985;53.180;5.800;2022-08-04T05:54:32;18.80;99.90
55091;DHT22;40985;53.180;5.800;2022-08-04T05:56:59;18.90;99.90
55091;DHT22;40985;53.180;5.800;2022-08-04T05:59:26;18.90;99.90
55091;DHT22;40985;53.180;5.800;2022-08-04T06:01:55;19.00;99.90
55091;DHT22;40985;53.180;5.800;2022-08-04T06:04:41;19.00;99.90
55091;DHT22;40985;53.180;5.800;2022-08-04T06:07:07;19.00;99.90
55091;DHT22;40985;53.180;5.800;2022-08-04T06:09:33;19.00;99.90
55091;DHT22;40985;53.180;5.800;2022-08-04T06:12:01;19.00;99.90
55091;DHT22;40985;53.180;5.800;2022-08-04T06:14:38;19.10;99.90
55091;DHT22;40985;53.180;5.800;2022-08-04T06:17:06;19.10;99.90
55091;DHT22;40985;53.180;5.800;2022-08-04T06:19:34;19.20;99.90
55091;DHT22;40985;53.180;5.800;2022-08-04T06:22:03;19.30;99.90
55091;DHT22;40985;53.180;5.800;2022-08-04T06:24:31;19.40;99.90
55091;DHT22;40985;53.180;5.800;2022-08-04T06:26:57;19.40;99.90
55091;DHT22;40985;53.180;5.800;2022-08-04T06:29:26;19.40;99.90
55091;DHT22;40985;53.180;5.800;2022-08-04T06:32:00;19.50;99.90
55091;DHT22;40985;53.180;5.800;2022-08-04T06:34:39;19.50;99.90
55091;DHT22;40985;53.180;5.800;2022-08-04T06:37:06;19.50;99.90
55091;DHT22;40985;53.180;5.800;2022-08-04T06:39:33;19.70;99.90
55091;DHT22;40985;53.180;5.800;2022-08-04T06:42:00;19.70;99.90
55091;DHT22;40985;53.180;5.800;2022-08-04T06:44:27;19.70;99.90
55091;DHT22;40985;53.180;5.800;2022-08-04T06:46:54;19.80;99.90
55091;DHT22;40985;53.180;5.800;2022-08-04T06:49:21;19.80;99.90
55091;DHT22;40985;53.180;5.800;2022-08-04T06:51:48;19.80;99.90
55091;DHT22;40985;53.180;5.800;2022-08-04T06:54:15;19.80;99.90
55091;DHT22;40985;53.180;5.800;2022-08-04T06:56:42;19.90;99.90
55091;DHT22;40985;53.180;5.800;2022-08-04T06:59:10;19.90;99.90
55091;DHT22;40985;53.180;5.800;2022-08-04T07:01:36;19.90;99.90
55091;DHT22;40985;53.180;5.800;2022-08-04T07:04:04;20.00;99.90
55091;DHT22;40985;53.180;5.800;2022-08-04T07:06:30;19.90;99.90
55091;DHT22;40985;53.180;5.800;2022-08-04T07:08:56;19.90;99.90
55091;DHT22;40985;53.180;5.800;2022-08-04T07:11:22;20.00;99.90
55091;DHT22;40985;53.180;5.800;2022-08-04T07:13:49;20.00;99.90
55091;DHT22;40985;53.180;5.800;2022-08-04T07:16:16;20.00;99.90
55091;DHT22;40985;53.180;5.800;2022-08-04T07:18:42;20.10;99.90
55091;DHT22;40985;53.180;5.800;2022-08-04T07:21:08;20.00;99.90
55091;DHT22;40985;53.180;5.800;2022-08-04T07:23:35;20.00;99.90
55091;DHT22;40985;53.180;5.800;2022-08-04T07:26:01;20.10;99.90
55091;DHT22;40985;53.180;5.800;2022-08-04T07:28:28;20.10;99.90
55091;DHT22;40985;53.180;5.800;2022-08-04T07:30:55;20.20;99.90
55091;DHT22;40985;53.180;5.800;2022-08-04T07:33:23;20.20;99.90
55091;DHT22;40985;53.180;5.800;2022-08-04T07:35:51;20.30;99.90
55091;DHT22;40985;53.180;5.800;2022-08-04T07:38:17;20.30;99.90
55091;DHT22;40985;53.180;5.800;2022-08-04T07:40:43;20.30;99.90
55091;DHT22;40985;53.180;5.800;2022-08-04T07:43:09;20.40;99.90
55091;DHT22;40985;53.180;5.800;2022-08-04T07:45:36;20.50;99.90
55091;DHT22;40985;53.180;5.800;2022-08-04T07:48:02;20.60;99.90
55091;DHT22;40985;53.180;5.800;2022-08-04T07:50:32;20.70;99.90
55091;DHT22;40985;53.180;5.800;2022-08-04T07:52:59;20.80;99.90
55091;DHT22;40985;53.180;5.800;2022-08-04T07:55:27;20.80;99.90
55091;DHT22;40985;53.180;5.800;2022-08-04T07:57:53;20.90;99.90
55091;DHT22;40985;53.180;5.800;2022-08-04T08:00:19;21.00;99.90
55091;DHT22;40985;53.180;5.800;2022-08-04T08:02:48;21.10;99.90
55091;DHT22;40985;53.180;5.800;2022-08-04T08:05:15;21.20;99.90
55091;DHT22;40985;53.180;5.800;2022-08-04T08:07:48;21.30;99.90
55091;DHT22;40985;53.180;5.800;2022-08-04T08:10:15;21.50;99.90
55091;DHT22;40985;53.180;5.800;2022-08-04T08:12:42;21.60;99.90
55091;DHT22;40985;53.180;5.800;2022-08-04T08:15:09;21.70;99.90
55091;DHT22;40985;53.180;5.800;2022-08-04T08:17:37;21.80;99.90
55091;DHT22;40985;53.180;5.800;2022-08-04T08:20:05;21.90;99.90
55091;DHT22;40985;53.180;5.800;2022-08-04T08:22:31;22.10;99.90
55091;DHT22;40985;53.180;5.800;2022-08-04T08:24:57;22.30;99.90
55091;DHT22;40985;53.180;5.800;2022-08-04T08:27:23;22.40;99.90
55091;DHT22;40985;53.180;5.800;2022-08-04T08:29:49;22.50;99.90
55091;DHT22;40985;53.180;5.800;2022-08-04T08:32:15;22.50;99.90
55091;DHT22;40985;53.180;5.800;2022-08-04T08:34:41;22.60;99.90
55091;DHT22;40985;53.180;5.800;2022-08-04T08:37:21;22.70;99.90
55091;DHT22;40985;53.180;5.800;2022-08-04T08:49:01;23.00;99.90
55091;DHT22;40985;53.180;5.800;2022-08-04T08:51:41;23.10;99.90
55091;DHT22;40985;53.180;5.800;2022-08-04T08:54:36;23.10;99.90
55091;DHT22;40985;53.180;5.800;2022-08-04T08:58:03;22.90;99.90
55091;DHT22;40985;53.180;5.800;2022-08-04T09:00:17;22.80;99.90
55091;DHT22;40985;53.180;5.800;2022-08-04T09:05:23;23.10;99.90
55091;DHT22;40985;53.180;5.800;2022-08-04T09:10:44;23.20;99.90
55091;DHT22;40985;53.180;5.800;2022-08-04T09:18:25;23.70;99.90
55091;DHT22;40985;53.180;5.800;2022-08-04T09:29:36;24.00;99.90
55091;DHT22;40985;53.180;5.800;2022-08-04T09:33:17;24.20;99.90
55091;DHT22;40985;53.180;5.800;2022-08-04T09:35:21;24.20;99.90
55091;DHT22;40985;53.180;5.800;2022-08-04T09:38:12;24.10;99.90
55091;DHT22;40985;53.180;5.800;2022-08-04T09:40:57;24.00;99.90
55091;DHT22;40985;53.180;5.800;2022-08-04T09:49:09;24.00;99.90
55091;DHT22;40985;53.180;5.800;2022-08-04T09:52:05;24.20;99.90
55091;DHT22;40985;53.180;5.800;2022-08-04T09:54:49;24.20;99.90
55091;DHT22;40985;53.180;5.800;2022-08-04T10:00:06;24.50;99.90
55091;DHT22;40985;53.180;5.800;2022-08-04T10:02:38;24.10;99.90
55091;DHT22;40985;53.180;5.800;2022-08-04T10:05:10;24.00;99.90
55091;DHT22;40985;53.180;5.800;2022-08-04T10:16:04;24.40;99.90
55091;DHT22;40985;53.180;5.800;2022-08-04T10:21:22;24.50;99.90
55091;DHT22;40985;53.180;5.800;2022-08-04T10:27:00;24.70;99.90
55091;DHT22;40985;53.180;5.800;2022-08-04T10:29:30;24.70;99.90
55091;DHT22;40985;53.180;5.800;2022-08-04T10:34:43;24.40;99.90
55091;DHT22;40985;53.180;5.800;2022-08-04T10:37:20;24.20;99.90
55091;DHT22;40985;53.180;5.800;2022-08-04T10:40:09;24.00;99.90
55091;DHT22;40985;53.180;5.800;2022-08-04T10:45:57;23.80;99.90
55091;DHT22;40985;53.180;5.800;2022-08-04T10:51:29;24.20;99.90
55091;DHT22;40985;53.180;5.800;2022-08-04T10:54:02;24.50;99.90
55091;DHT22;40985;53.180;5.800;2022-08-04T11:00:02;24.30;99.90
55091;DHT22;40985;53.180;5.800;2022-08-04T11:08:14;24.20;99.90
55091;DHT22;40985;53.180;5.800;2022-08-04T11:11:05;24.20;99.90
55091;DHT22;40985;53.180;5.800;2022-08-04T11:13:44;24.00;99.90
55091;DHT22;40985;53.180;5.800;2022-08-04T11:16:16;24.10;99.90
55091;DHT22;40985;53.180;5.800;2022-08-04T11:18:52;24.20;99.90
55091;DHT22;40985;53.180;5.800;2022-08-04T11:21:33;24.30;99.90
55091;DHT22;40985;53.180;5.800;2022-08-04T11:24:16;24.30;99.90
55091;DHT22;40985;53.180;5.800;2022-08-04T11:32:09;24.50;99.90
55091;DHT22;40985;53.180;5.800;2022-08-04T11:34:38;24.20;99.90
55091;DHT22;40985;53.180;5.800;2022-08-04T11:37:15;24.30;99.90
55091;DHT22;40985;53.180;5.800;2022-08-04T11:39:58;24.40;99.90
55091;DHT22;40985;53.180;5.800;2022-08-04T11:42:30;24.30;99.90
55091;DHT22;40985;53.180;5.800;2022-08-04T11:45:03;24.50;99.90
55091;DHT22;40985;53.180;5.800;2022-08-04T11:52:43;24.40;99.90
55091;DHT22;40985;53.180;5.800;2022-08-04T11:55:12;24.50;99.90
55091;DHT22;40985;53.180;5.800;2022-08-04T11:57:38;24.40;99.90
55091;DHT22;40985;53.180;5.800;2022-08-04T12:00:09;24.30;99.90
55091;DHT22;40985;53.180;5.800;2022-08-04T12:05:35;24.20;99.90
55091;DHT22;40985;53.180;5.800;2022-08-04T12:16:37;24.80;99.90
55091;DHT22;40985;53.180;5.800;2022-08-04T12:21:56;24.90;99.90
55091;DHT22;40985;53.180;5.800;2022-08-04T12:24:29;24.50;99.90
55091;DHT22;40985;53.180;5.800;2022-08-04T12:26:58;24.60;99.90
55091;DHT22;40985;53.180;5.800;2022-08-04T12:29:27;24.60;99.90
55091;DHT22;40985;53.180;5.800;2022-08-04T12:32:30;24.80;99.90
55091;DHT22;40985;53.180;5.800;2022-08-04T12:35:18;25.00;99.90
55091;DHT22;40985;53.180;5.800;2022-08-04T12:38:04;25.20;99.90
55091;DHT22;40985;53.180;5.800;2022-08-04T12:40:50;24.80;99.90
55091;DHT22;40985;53.180;5.800;2022-08-04T12:43:29;24.70;99.90
55091;DHT22;40985;53.180;5.800;2022-08-04T12:46:04;24.40;99.90
55091;DHT22;40985;53.180;5.800;2022-08-04T12:48:33;24.30;99.90
55091;DHT22;40985;53.180;5.800;2022-08-04T12:50:59;24.30;99.90
55091;DHT22;40985;53.180;5.800;2022-08-04T12:53:39;24.20;99.90
55091;DHT22;40985;53.180;5.800;2022-08-04T12:56:08;24.20;99.90
55091;DHT22;40985;53.180;5.800;2022-08-04T12:58:41;24.40;99.90
55091;DHT22;40985;53.180;5.800;2022-08-04T13:01:19;24.20;99.90
55091;DHT22;40985;53.180;5.800;2022-08-04T13:06:14;24.50;99.90
55091;DHT22;40985;53.180;5.800;2022-08-04T13:08:42;24.60;99.90
55091;DHT22;40985;53.180;5.800;2022-08-04T13:11:10;24.50;99.90
55091;DHT22;40985;53.180;5.800;2022-08-04T13:13:38;24.30;99.90
55091;DHT22;40985;53.180;5.800;2022-08-04T13:16:06;24.20;99.90
55091;DHT22;40985;53.180;5.800;2022-08-04T13:18:35;24.10;99.90
55091;DHT22;40985;53.180;5.800;2022-08-04T13:21:13;24.00;99.90
55091;DHT22;40985;53.180;5.800;2022-08-04T13:23:40;24.00;99.90
55091;DHT22;40985;53.180;5.800;2022-08-04T13:26:07;23.90;99.90
55091;DHT22;40985;53.180;5.800;2022-08-04T13:28:33;24.00;99.90
55091;DHT22;40985;53.180;5.800;2022-08-04T13:31:06;23.80;99.90
55091;DHT22;40985;53.180;5.800;2022-08-04T13:33:38;24.00;99.90
55091;DHT22;40985;53.180;5.800;2022-08-04T13:36:07;24.00;99.90
55091;DHT22;40985;53.180;5.800;2022-08-04T13:38:36;24.00;99.90
55091;DHT22;40985;53.180;5.800;2022-08-04T13:41:05;24.30;99.90
55091;DHT22;40985;53.180;5.800;2022-08-04T13:43:43;24.60;99.90
55091;DHT22;40985;53.180;5.800;2022-08-04T13:46:16;24.50;99.90
55091;DHT22;40985;53.180;5.800;2022-08-04T13:48:43;24.30;99.90
55091;DHT22;40985;53.180;5.800;2022-08-04T13:51:10;24.30;99.90
55091;DHT22;40985;53.180;5.800;2022-08-04T13:53:38;24.00;99.90
55091;DHT22;40985;53.180;5.800;2022-08-04T13:56:06;24.20;99.90
55091;DHT22;40985;53.180;5.800;2022-08-04T13:58:38;24.30;99.90
55091;DHT22;40985;53.180;5.800;2022-08-04T14:01:23;23.90;99.90
55091;DHT22;40985;53.180;5.800;2022-08-04T14:04:01;24.00;99.90
55091;DHT22;40985;53.180;5.800;2022-08-04T14:06:33;24.00;99.90
55091;DHT22;40985;53.180;5.800;2022-08-04T14:09:13;24.00;99.90
55091;DHT22;40985;53.180;5.800;2022-08-04T14:11:43;23.90;99.90
55091;DHT22;40985;53.180;5.800;2022-08-04T14:14:30;24.00;99.90
55091;DHT22;40985;53.180;5.800;2022-08-04T14:17:03;23.80;99.90
55091;DHT22;40985;53.180;5.800;2022-08-04T14:20:00;23.90;99.90
55091;DHT22;40985;53.180;5.800;2022-08-04T14:25:11;24.00;99.90
55091;DHT22;40985;53.180;5.800;2022-08-04T14:27:46;24.00;99.90
55091;DHT22;40985;53.180;5.800;2022-08-04T14:30:27;23.90;99.90
55091;DHT22;40985;53.180;5.800;2022-08-04T14:32:54;23.90;99.90
55091;DHT22;40985;53.180;5.800;2022-08-04T14:35:20;23.90;99.90
55091;DHT22;40985;53.180;5.800;2022-08-04T14:37:58;23.90;99.90
55091;DHT22;40985;53.180;5.800;2022-08-04T14:40:29;23.70;99.90
55091;DHT22;40985;53.180;5.800;2022-08-04T14:42:56;23.70;99.90
55091;DHT22;40985;53.180;5.800;2022-08-04T14:47:58;23.70;99.90
55091;DHT22;40985;53.180;5.800;2022-08-04T14:50:41;23.70;99.90
55091;DHT22;40985;53.180;5.800;2022-08-04T14:53:08;23.80;99.90
55091;DHT22;40985;53.180;5.800;2022-08-04T14:55:34;23.90;99.90
55091;DHT22;40985;53.180;5.800;2022-08-04T14:58:00;23.80;99.90
55091;DHT22;40985;53.180;5.800;2022-08-04T15:00:29;24.00;99.90
55091;DHT22;40985;53.180;5.800;2022-08-04T15:03:02;23.90;99.90
55091;DHT22;40985;53.180;5.800;2022-08-04T15:05:29;23.80;99.90
55091;DHT22;40985;53.180;5.800;2022-08-04T15:07:56;23.70;99.90
55091;DHT22;40985;53.180;5.800;2022-08-04T15:10:22;23.60;99.90
55091;DHT22;40985;53.180;5.800;2022-08-04T15:12:48;23.50;99.90
55091;DHT22;40985;53.180;5.800;2022-08-04T15:15:14;23.40;99.90
55091;DHT22;40985;53.180;5.800;2022-08-04T15:17:40;23.30;99.90
55091;DHT22;40985;53.180;5.800;2022-08-04T15:20:07;23.30;99.90
55091;DHT22;40985;53.180;5.800;2022-08-04T15:22:33;23.40;99.90
55091;DHT22;40985;53.180;5.800;2022-08-04T15:24:59;23.30;99.90
55091;DHT22;40985;53.180;5.800;2022-08-04T15:27:29;23.30;99.90
55091;DHT22;40985;53.180;5.800;2022-08-04T15:30:02;23.20;99.90
55091;DHT22;40985;53.180;5.800;2022-08-04T15:32:33;23.20;99.90
55091;DHT22;40985;53.180;5.800;2022-08-04T15:35:27;23.10;99.90
55091;DHT22;40985;53.180;5.800;2022-08-04T15:40:34;23.10;99.90
55091;DHT22;40985;53.180;5.800;2022-08-04T15:43:19;23.10;99.90
55091;DHT22;40985;53.180;5.800;2022-08-04T15:53:26;22.90;99.90
55091;DHT22;40985;53.180;5.800;2022-08-04T15:55:53;22.90;99.90
55091;DHT22;40985;53.180;5.800;2022-08-04T15:58:20;22.80;99.90
55091;DHT22;40985;53.180;5.800;2022-08-04T16:19:16;22.50;99.90
55091;DHT22;40985;53.180;5.800;2022-08-04T16:21:46;22.60;99.90
55091;DHT22;40985;53.180;5.800;2022-08-04T16:24:21;22.60;99.90
55091;DHT22;40985;53.180;5.800;2022-08-04T16:26:56;22.50;99.90
55091;DHT22;40985;53.180;5.800;2022-08-04T16:34:33;22.50;99.90
55091;DHT22;40985;53.180;5.800;2022-08-04T16:37:01;22.40;99.90
55091;DHT22;40985;53.180;5.800;2022-08-04T16:39:27;22.40;99.90
55091;DHT22;40985;53.180;5.800;2022-08-04T16:41:53;22.20;99.90
55091;DHT22;40985;53.180;5.800;2022-08-04T16:44:29;22.10;99.90
55091;DHT22;40985;53.180;5.800;2022-08-04T16:46:57;22.00;99.90
55091;DHT22;40985;53.180;5.800;2022-08-04T16:49:24;22.10;99.90
55091;DHT22;40985;53.180;5.800;2022-08-04T16:51:50;22.00;99.90
55091;DHT22;40985;53.180;5.800;2022-08-04T16:54:16;21.90;99.90
55091;DHT22;40985;53.180;5.800;2022-08-04T16:56:42;21.80;99.90
55091;DHT22;40985;53.180;5.800;2022-08-04T16:59:10;21.80;99.90
55091;DHT22;40985;53.180;5.800;2022-08-04T17:01:37;21.60;99.90
55091;DHT22;40985;53.180;5.800;2022-08-04T17:04:10;21.40;99.90
55091;DHT22;40985;53.180;5.800;2022-08-04T17:06:38;21.30;99.90
55091;DHT22;40985;53.180;5.800;2022-08-04T17:09:15;21.30;99.90
55091;DHT22;40985;53.180;5.800;2022-08-04T17:11:42;21.10;99.90
55091;DHT22;40985;53.180;5.800;2022-08-04T17:14:09;21.00;99.90
55091;DHT22;40985;53.180;5.800;2022-08-04T17:16:38;21.00;99.90
55091;DHT22;40985;53.180;5.800;2022-08-04T17:19:05;21.00;99.90
55091;DHT22;40985;53.180;5.800;2022-08-04T17:21:33;21.00;99.90
55091;DHT22;40985;53.180;5.800;2022-08-04T17:24:00;20.90;99.90
55091;DHT22;40985;53.180;5.800;2022-08-04T17:26:34;20.90;99.90
55091;DHT22;40985;53.180;5.800;2022-08-04T17:29:00;20.80;99.90
55091;DHT22;40985;53.180;5.800;2022-08-04T17:31:27;20.80;99.90
55091;DHT22;40985;53.180;5.800;2022-08-04T17:34:10;20.70;99.90
55091;DHT22;40985;53.180;5.800;2022-08-04T17:36:37;20.60;99.90
55091;DHT22;40985;53.180;5.800;2022-08-04T17:39:15;20.50;99.90
55091;DHT22;40985;53.180;5.800;2022-08-04T17:41:43;20.40;99.90
55091;DHT22;40985;53.180;5.800;2022-08-04T17:44:09;20.40;99.90
55091;DHT22;40985;53.180;5.800;2022-08-04T17:54:12;20.30;99.90
55091;DHT22;40985;53.180;5.800;2022-08-04T17:56:46;20.30;99.90
55091;DHT22;40985;53.180;5.800;2022-08-04T17:59:22;20.30;99.90
55091;DHT22;40985;53.180;5.800;2022-08-04T18:01:51;20.40;99.90
55091;DHT22;40985;53.180;5.800;2022-08-04T18:04:28;20.40;99.90
55091;DHT22;40985;53.180;5.800;2022-08-04T18:07:02;20.40;99.90
55091;DHT22;40985;53.180;5.800;2022-08-04T18:09:54;20.40;99.90
55091;DHT22;40985;53.180;5.800;2022-08-04T18:12:24;20.40;99.90
55091;DHT22;40985;53.180;5.800;2022-08-04T18:14:52;20.40;99.90
55091;DHT22;40985;53.180;5.800;2022-08-04T18:17:42;20.30;99.90
55091;DHT22;40985;53.180;5.800;2022-08-04T18:20:11;20.20;99.90
55091;DHT22;40985;53.180;5.800;2022-08-04T18:22:42;20.20;99.90
55091;DHT22;40985;53.180;5.800;2022-08-04T18:25:10;20.10;99.90
55091;DHT22;40985;53.180;5.800;2022-08-04T18:27:51;20.10;99.90
55091;DHT22;40985;53.180;5.800;2022-08-04T18:30:19;20.00;99.90
55091;DHT22;40985;53.180;5.800;2022-08-04T18:32:45;19.90;99.90
55091;DHT22;40985;53.180;5.800;2022-08-04T18:35:11;19.80;99.90
55091;DHT22;40985;53.180;5.800;2022-08-04T18:37:38;19.90;99.90
55091;DHT22;40985;53.180;5.800;2022-08-04T18:40:05;19.80;99.90
55091;DHT22;40985;53.180;5.800;2022-08-04T18:42:32;19.80;99.90
55091;DHT22;40985;53.180;5.800;2022-08-04T18:44:57;19.80;99.90
55091;DHT22;40985;53.180;5.800;2022-08-04T18:47:23;19.70;99.90
55091;DHT22;40985;53.180;5.800;2022-08-04T18:49:53;19.70;99.90
55091;DHT22;40985;53.180;5.800;2022-08-04T18:52:19;19.60;99.90
55091;DHT22;40985;53.180;5.800;2022-08-04T18:54:44;19.60;99.90
55091;DHT22;40985;53.180;5.800;2022-08-04T18:57:11;19.50;99.90
55091;DHT22;40985;53.180;5.800;2022-08-04T18:59:37;19.50;99.90
55091;DHT22;40985;53.180;5.800;2022-08-04T19:02:03;19.40;99.90
55091;DHT22;40985;53.180;5.800;2022-08-04T19:04:28;19.40;99.90
55091;DHT22;40985;53.180;5.800;2022-08-04T19:06:54;19.30;99.90
55091;DHT22;40985;53.180;5.800;2022-08-04T19:09:20;19.30;99.90
55091;DHT22;40985;53.180;5.800;2022-08-04T19:11:47;19.30;99.90
55091;DHT22;40985;53.180;5.800;2022-08-04T19:14:13;19.20;99.90
55091;DHT22;40985;53.180;5.800;2022-08-04T19:16:38;19.20;99.90
55091;DHT22;40985;53.180;5.800;2022-08-04T19:19:05;19.20;99.90
55091;DHT22;40985;53.180;5.800;2022-08-04T19:21:31;19.20;99.90
55091;DHT22;40985;53.180;5.800;2022-08-04T19:23:57;19.20;99.90
55091;DHT22;40985;53.180;5.800;2022-08-04T19:26:23;19.10;99.90
55091;DHT22;40985;53.180;5.800;2022-08-04T19:28:51;19.10;99.90
55091;DHT22;40985;53.180;5.800;2022-08-04T19:31:17;19.00;99.90
55091;DHT22;40985;53.180;5.800;2022-08-04T19:33:43;19.00;99.90
55091;DHT22;40985;53.180;5.800;2022-08-04T19:36:09;19.00;99.90
55091;DHT22;40985;53.180;5.800;2022-08-04T19:38:36;19.00;99.90
55091;DHT22;40985;53.180;5.800;2022-08-04T19:41:02;18.90;99.90
55091;DHT22;40985;53.180;5.800;2022-08-04T19:43:29;18.80;99.90
55091;DHT22;40985;53.180;5.800;2022-08-04T19:45:56;18.80;99.90
55091;DHT22;40985;53.180;5.800;2022-08-04T19:48:22;18.70;99.90
55091;DHT22;40985;53.180;5.800;2022-08-04T19:50:48;18.70;99.90
55091;DHT22;40985;53.180;5.800;2022-08-04T19:53:14;18.60;99.90
55091;DHT22;40985;53.180;5.800;2022-08-04T19:55:41;18.60;99.90
55091;DHT22;40985;53.180;5.800;2022-08-04T19:58:07;18.50;99.90
55091;DHT22;40985;53.180;5.800;2022-08-04T20:00:34;18.50;99.90
55091;DHT22;40985;53.180;5.800;2022-08-04T20:03:01;18.40;99.90
55091;DHT22;40985;53.180;5.800;2022-08-04T20:05:27;18.40;99.90
55091;DHT22;40985;53.180;5.800;2022-08-04T20:07:52;18.40;99.90
55091;DHT22;40985;53.180;5.800;2022-08-04T20:10:18;18.30;99.90
55091;DHT22;40985;53.180;5.800;2022-08-04T20:12:44;18.30;99.90
55091;DHT22;40985;53.180;5.800;2022-08-04T20:15:09;18.30;99.90
55091;DHT22;40985;53.180;5.800;2022-08-04T20:17:35;18.20;99.90
55091;DHT22;40985;53.180;5.800;2022-08-04T20:20:03;18.20;99.90
55091;DHT22;40985;53.180;5.800;2022-08-04T20:22:30;18.10;99.90
55091;DHT22;40985;53.180;5.800;2022-08-04T20:24:56;18.10;99.90
55091;DHT22;40985;53.180;5.800;2022-08-04T20:27:21;18.10;99.90
55091;DHT22;40985;53.180;5.800;2022-08-04T20:29:49;18.00;99.90